ADDS METAR Data INFO
IDs: Format: Raw Decoded Include TAF

Data at: 0621 UTC 15 Dec 2017

KGAF 150615Z AUTO 34008KT 10SM OVC028 M08/M09 A3002 RMK AO2 PWINO
KGAF 150555Z AUTO 35008KT 10SM OVC028 M07/M09 A3002 RMK AO2 PWINO
KGAF 150535Z AUTO 36008KT 10SM OVC028 M07/M09 A3002 RMK AO2 PWINO
KGAF 150515Z AUTO 36009KT 10SM BKN028 M07/M09 A3002 RMK AO2 PWINO
KGAF 150455Z AUTO 36011KT 10SM BKN028 M07/M09 A3003 RMK AO2 PWINO
KGAF 150435Z AUTO 35010KT 10SM BKN028 M07/M08 A3003 RMK AO2 PWINO
KGAF 150415Z AUTO 35011KT 10SM FEW015 BKN028 M06/M08 A3003 RMK AO2 PWINO
KGAF 150355Z AUTO 34008KT 10SM FEW014 OVC029 M06/M08 A3004 RMK AO2 PWINO
KGAF 150335Z AUTO 35007G13KT 10SM FEW013 OVC030 M06/M07 A3004 RMK AO2 PWINO
KGAF 150315Z AUTO 35010KT 10SM BKN014 BKN020 OVC028 M06/M07 A3004 RMK AO2 PWINO
KGAF 150255Z AUTO 34009KT 10SM BKN015 BKN021 OVC027 M06/M07 A3005 RMK AO2 PWINO
KGAF 150235Z AUTO 31006KT 10SM BKN015 OVC029 M07/M07 A3005 RMK AO2 PWINO
KGAF 150215Z AUTO 29004KT 10SM FEW016 BKN028 M07/M07 A3005 RMK AO2 PWINO
KGAF 150155Z AUTO 00000KT 9SM SCT015 BKN019 OVC027 M07/M07 A3005 RMK AO2 PWINO
KGAF 150135Z AUTO 00000KT 9SM SCT018 OVC027 M07/M07 A3005 RMK AO2 PWINO
KGAF 150115Z AUTO 00000KT 10SM OVC028 M07/M08 A3006 RMK AO2 PWINO
KGAF 150055Z AUTO 00000KT 10SM SCT021 OVC029 M07/M07 A3006 RMK AO2 PWINO
KGAF 150035Z AUTO 00000KT 10SM SCT022 OVC032 M07/M08 A3006 RMK AO2 PWINO
KGAF 150015Z AUTO 00000KT 10SM OVC033 M07/M08 A3006 RMK AO2 PWINO
KGAF 142355Z AUTO 00000KT 9SM FEW022 FEW028 OVC036 M07/M08 A3005 RMK AO2 PWINO
KGAF 142335Z AUTO 00000KT 4SM BR FEW001 SCT023 BKN030 M07/M08 A3006 RMK AO2 PWINO
KGAF 142315Z AUTO 00000KT 1 1/4SM BR BKN001 OVC010 M07/M08 A3008 RMK AO2 PWINO
KGAF 142255Z AUTO 02005KT 2SM BR FEW001 SCT010 BKN018 M07/M08 A3008 RMK AO2 PWINO
KGAF 142235Z AUTO 02005KT 2SM BR FEW001 SCT014 OVC035 M07/M08 A3007 RMK AO2 PWINO
KGAF 142215Z AUTO 36004KT 2SM BR FEW001 BKN021 OVC031 M07/M08 A3007 RMK AO2 PWINO
KGAF 142155Z AUTO 34003KT 10SM BKN031 OVC045 M07/M09 A3007 RMK AO2 PWINO
KGAF 142135Z AUTO 34004KT 10SM SCT023 BKN029 OVC048 M07/M09 A3007 RMK AO2 PWINO
KGAF 142115Z AUTO 32005KT 10SM FEW020 BKN025 BKN032 M07/M09 A3008 RMK AO2 PWINO
KGAF 142055Z AUTO 34004KT 10SM FEW015 BKN028 OVC050 M07/M09 A3007 RMK AO2 PWINO
KGAF 142035Z AUTO 34005KT 9SM BKN016 BKN023 OVC030 M07/M09 A3008 RMK AO2 PWINO
KGAF 142015Z AUTO 36007KT 10SM BKN016 BKN025 M07/M09 A3008 RMK AO2 PWINO
KGAF 141955Z AUTO 35006KT 10SM BKN017 BKN029 BKN055 M07/M09 A3008 RMK AO2 PWINO
KGAF 141935Z AUTO 35007KT 10SM FEW018 SCT030 BKN055 M07/M09 A3008 RMK AO2 PWINO
KGAF 141915Z AUTO 35008KT 10SM BKN017 BKN055 M07/M09 A3009 RMK AO2 PWINO
KGAF 141855Z AUTO 34011G16KT 9SM OVC016 M07/M09 A3010 RMK AO2 PWINO
KGAF 141835Z AUTO 34012KT 9SM OVC016 M07/M09 A3010 RMK AO2 PWINO
KGAF 141815Z AUTO 35012KT 5SM BR FEW007 OVC015 M07/M09 A3010 RMK AO2 PWINO
KGAF 141755Z AUTO 34015KT 6SM BR FEW009 OVC015 M07/M09 A3010 RMK AO2 PWINO
KGAF 141735Z AUTO 35013KT 2SM BR SCT009 BKN015 OVC020 M07/M08 A3011 RMK AO2 PWINO
KGAF 141715Z AUTO 36011KT 3SM BR FEW001 SCT010 OVC015 M07/M08 A3011 RMK AO2 PWINO
KGAF 141655Z AUTO 36011KT 1 3/4SM BR SCT001 OVC014 M07/M08 A3011 RMK AO2 VIS 1 1/4V3 PWINO
KGAF 141635Z AUTO 33016KT 9SM M07/M08 A3011 RMK AO2 PWINO
KGAF 141615Z AUTO 35013KT 7SM BKN016 OVC021 M07/M08 A3010 RMK AO2 PWINO
KGAF 141555Z AUTO 35014G19KT 10SM FEW014 OVC019 M07/M09 A3010 RMK AO2 PWINO
KGAF 141535Z AUTO 35013G20KT 9SM OVC019 M07/M08 A3009 RMK AO2 PWINO
KGAF 141515Z AUTO 34018KT 10SM OVC019 M06/M08 A3008 RMK AO2 PWINO
KGAF 141455Z AUTO 34019G25KT 10SM OVC017 M06/M08 A3007 RMK AO2 PWINO
KGAF 141435Z AUTO 34014G20KT 10SM BKN018 OVC022 M06/M08 A3006 RMK AO2 PWINO
KGAF 141415Z AUTO 33008G13KT 10SM SCT020 BKN032 BKN049 M06/M07 A3005 RMK AO2 PWINO
KGAF 141355Z AUTO 32009KT 8SM FEW002 SCT010 BKN020 M06/M07 A3004 RMK AO2 PWINO
KGAF 141335Z AUTO 32010KT 7SM FEW003 SCT017 BKN042 M06/M07 A3004 RMK AO2 PWINO
KGAF 141315Z AUTO 32009KT 9SM OVC041 M06/M07 A3004 RMK AO2 PWINO
KGAF 141255Z AUTO 32008KT 10SM OVC040 M06/M07 A3003 RMK AO2 PWINO
KGAF 141235Z AUTO 32007KT 10SM FEW024 SCT030 OVC040 M06/M08 A3002 RMK AO2 PWINO
KGAF 141215Z AUTO 31006KT 10SM BKN023 OVC041 M06/M07 A3002 RMK AO2 PWINO
KGAF 141155Z AUTO 32007KT 10SM BKN023 OVC029 M06/M08 A3002 RMK AO2 PWINO
KGAF 141135Z AUTO 31006KT 10SM BKN029 BKN090 M06/M07 A3001 RMK AO2 PWINO
KGAF 141115Z AUTO 30006KT 10SM BKN032 BKN090 M06/M08 A3001 RMK AO2 PWINO
KGAF 141055Z AUTO 29006KT 8SM BKN025 OVC031 M07/M08 A3001 RMK AO2 PWINO
KGAF 141035Z AUTO 30006KT 10SM BKN024 BKN060 M07/M08 A3001 RMK AO2 PWINO
KGAF 141015Z AUTO 28005KT 9SM SCT025 BKN060 M07/M08 A3001 RMK AO2 PWINO
KGAF 140955Z AUTO 27006KT 9SM FEW022 SCT070 SCT080 M07/M08 A3001 RMK AO2 PWINO
KGAF 140935Z AUTO 25007KT 10SM FEW015 FEW027 SCT080 M07/M08 A3001 RMK AO2 PWINO
KGAF 140915Z AUTO 24005KT 10SM BKN014 BKN026 M07/M09 A3000 RMK AO2 PWINO
KGAF 140855Z AUTO 24006KT 10SM OVC014 M08/M09 A3001 RMK AO2 PWINO
KGAF 140835Z AUTO 22006KT 10SM BKN014 OVC021 M08/M09 A3000 RMK AO2 PWINO
KGAF 140815Z AUTO 22005KT 10SM SCT016 OVC022 M08/M09 A3001 RMK AO2 PWINO
KGAF 140755Z AUTO 18005KT 10SM BKN015 OVC024 M08/M10 A3000 RMK AO2 PWINO
KGAF 140735Z AUTO 22003KT 10SM BKN012 OVC018 M08/M10 A3001 RMK AO2 PWINO
KGAF 140715Z AUTO 00000KT 10SM OVC011 M08/M10 A3001 RMK AO2 PWINO
KGAF 140655Z AUTO 31004KT 10SM OVC011 M08/M10 A3002 RMK AO2 PWINO
KGAF 140635Z AUTO 00000KT 10SM OVC011 M08/M10 A3002 RMK AO2 PWINO
KGAF 140615Z AUTO 00000KT 10SM OVC011 M08/M10 A3001 RMK AO2 PWINO
KGAF 140555Z AUTO 00000KT 10SM OVC013 M09/M10 A3001 RMK AO2 PWINO
KGAF 140535Z AUTO 33006KT 9SM OVC013 M09/M10 A3003 RMK AO2 PWINO
KGAF 140515Z AUTO 33006KT 10SM OVC014 M09/M11 A3003 RMK AO2 PWINO
KGAF 140455Z AUTO 33006KT 10SM OVC014 M09/M11 A3002 RMK AO2 PWINO
KGAF 140435Z AUTO 33007KT 10SM OVC013 M09/M11 A3003 RMK AO2 PWINO
KGAF 140415Z AUTO 33006KT 10SM OVC013 M09/M11 A3001 RMK AO2 PWINO
KGAF 140355Z AUTO 35009KT 10SM OVC013 M09/M11 A3000 RMK AO2 PWINO
KGAF 140335Z AUTO 34008KT 10SM OVC012 M09/M10 A3000 RMK AO2 PWINO
KGAF 140315Z AUTO 34010KT 10SM OVC013 M08/M10 A3001 RMK AO2 PWINO
KGAF 140255Z AUTO 34011KT 10SM OVC014 M08/M10 A3002 RMK AO2 PWINO
KGAF 140235Z AUTO 33011KT 10SM OVC015 M08/M10 A3002 RMK AO2 PWINO
KGAF 140215Z AUTO 33012KT 10SM OVC015 M08/M10 A3002 RMK AO2 PWINO
KGAF 140155Z AUTO 33013KT 10SM OVC016 M08/M10 A3002 RMK AO2 PWINO
KGAF 140135Z AUTO 33010KT 8SM FEW010 OVC016 M08/M09 A3001 RMK AO2 PWINO
KGAF 140115Z AUTO 34009KT 6SM BR OVC016 M07/M09 A3000 RMK AO2 PWINO
KGAF 140055Z AUTO 34013KT 6SM BR OVC017 M07/M09 A3001 RMK AO2 PWINO
KGAF 140035Z AUTO 34013KT 5SM BR FEW011 OVC017 M07/M09 A3001 RMK AO2 PWINO
KGAF 140015Z AUTO 34010G17KT 3SM BR FEW011 OVC017 M07/M08 A3000 RMK AO2 PWINO
KGAF 132355Z AUTO 34011KT 9SM OVC017 M07/M09 A2999 RMK AO2 PWINO
KGAF 132335Z AUTO 35010KT 9SM OVC019 M07/M09 A2998 RMK AO2 PWINO
KGAF 132315Z AUTO 36012G21KT 10SM OVC018 M07/M09 A2998 RMK AO2 PWINO
KGAF 132255Z AUTO 36013G19KT 10SM OVC019 M07/M09 A2997 RMK AO2 PWINO
KGAF 132235Z AUTO 35015KT 10SM OVC022 M07/M09 A2996 RMK AO2 PWINO
KGAF 132215Z AUTO 36017KT 10SM OVC021 M06/M09 A2995 RMK AO2 PWINO
KGAF 132155Z AUTO 36016KT 10SM OVC022 M06/M09 A2994 RMK AO2 PWINO
KGAF 132135Z AUTO 35019KT 10SM OVC021 M06/M08 A2993 RMK AO2 PWINO
KGAF 132115Z AUTO 35019G26KT 9SM OVC023 M06/M08 A2991 RMK AO2 PWINO
KGAF 132055Z AUTO 35021G27KT 10SM OVC022 M05/M09 A2990 RMK AO2 PWINO
KGAF 132035Z AUTO 34017G26KT 10SM SCT016 OVC022 M05/M08 A2989 RMK AO2 PWINO
KGAF 132015Z AUTO 34019G24KT 10SM OVC016 M05/M07 A2988 RMK AO2 PWINO
KGAF 131955Z AUTO 35017G23KT 8SM OVC017 M05/M07 A2987 RMK AO2 PWINO
KGAF 131935Z AUTO 35016G23KT 9SM M05/M07 A2986 RMK AO2 PWINO
KGAF 131915Z AUTO 35018G25KT 10SM M05/M07 A2985 RMK AO2 PWINO
KGAF 131855Z AUTO 35016G22KT 4SM BR BKN015 OVC035 M05/M06 A2985 RMK AO2 PWINO
KGAF 131835Z AUTO 35021G28KT 10SM SCT017 BKN024 OVC035 M04/M07 A2984 RMK AO2 PWINO